Time;durP1;ratioP1;P1;durP2;ratioP2;P2;SDS_P1;SDS_P2;PMS_P1;PMS_P2;Temp;Humidity;BMP_temperature;BMP_pressure;BME280_temperature;BME280_humidity;BME280_pressure;Samples;Min_cycle;Max_cycle;Signal;HPM_P1;HPM_P2
2022/02/14 00:01:41;;;;;;;3.50;3.20;;;12.50;34.90;;;;;;5036436;28;20444;-42
2022/02/14 00:04:06;;;;;;;4.10;3.47;;;12.50;34.90;;;;;;5037680;28;20490;-43
2022/02/14 00:06:32;;;;;;;3.50;3.00;;;12.70;35.50;;;;;;5040399;28;20531;-42
2022/02/14 00:08:57;;;;;;;4.63;3.43;;;12.90;34.90;;;;;;5051445;28;20315;-42
2022/02/14 00:11:24;;;;;;;3.60;2.33;;;13.10;35.90;;;;;;5036500;28;20185;-42
2022/02/14 00:13:51;;;;;;;3.90;2.77;;;13.30;35.10;;;;;;5042156;28;20261;-42
2022/02/14 00:16:17;;;;;;;3.67;2.90;;;13.40;34.90;;;;;;5048799;28;21195;-42
2022/02/14 00:18:42;;;;;;;3.10;2.40;;;13.00;33.60;;;;;;5032885;28;20440;-42
2022/02/14 00:21:08;;;;;;;3.07;2.30;;;13.10;34.80;;;;;;5040127;28;20459;-42
2022/02/14 00:23:34;;;;;;;2.73;2.50;;;13.30;35.60;;;;;;5033420;28;20542;-42
2022/02/14 00:25:59;;;;;;;2.90;2.60;;;13.60;34.50;;;;;;5038164;28;20264;-43
2022/02/14 00:28:25;;;;;;;5.07;2.70;;;13.60;33.60;;;;;;5037174;28;20200;-42
2022/02/14 00:30:51;;;;;;;3.67;3.37;;;13.70;32.80;;;;;;5040806;28;20237;-42
2022/02/14 00:33:16;;;;;;;4.70;2.80;;;13.70;33.00;;;;;;5037421;28;20528;-42
2022/02/14 00:35:42;;;;;;;3.73;2.10;;;13.80;34.10;;;;;;5042254;28;20185;-43
2022/02/14 00:38:07;;;;;;;3.13;2.33;;;13.90;35.30;;;;;;5042376;28;20224;-43
2022/02/14 00:40:33;;;;;;;6.80;2.40;;;14.00;33.90;;;;;;5043732;28;20820;-43
2022/02/14 00:42:59;;;;;;;2.27;2.07;;;14.10;33.90;;;;;;5037584;28;20189;-43
2022/02/14 00:45:24;;;;;;;5.23;2.13;;;14.10;32.70;;;;;;5038546;28;20232;-43
2022/02/14 00:47:50;;;;;;;3.17;2.50;;;14.20;34.50;;;;;;5039300;28;20318;-42
2022/02/14 00:50:16;;;;;;;2.97;2.67;;;14.30;33.20;;;;;;5038978;28;20634;-42
2022/02/14 00:52:42;;;;;;;4.70;2.90;;;14.20;32.10;;;;;;5035273;28;20197;-43
2022/02/14 00:55:09;;;;;;;2.87;2.43;;;14.30;33.00;;;;;;5032844;28;20189;-43
2022/02/14 00:57:35;;;;;;;2.47;2.23;;;14.30;32.70;;;;;;5039024;28;20439;-43
2022/02/14 01:00:00;;;;;;;2.40;2.10;;;14.20;32.50;;;;;;5041415;28;20442;-42
2022/02/14 01:02:26;;;;;;;3.97;3.10;;;14.10;32.90;;;;;;5040641;28;20205;-42
2022/02/14 01:04:52;;;;;;;3.30;2.23;;;14.10;32.70;;;;;;5041078;28;20936;-43
2022/02/14 01:07:17;;;;;;;3.73;2.53;;;14.00;32.50;;;;;;5038226;28;22311;-42
2022/02/14 01:09:43;;;;;;;3.97;2.63;;;13.90;33.00;;;;;;5037622;28;20186;-43
2022/02/14 01:12:10;;;;;;;3.13;2.27;;;14.10;34.00;;;;;;5042697;28;20525;-43
2022/02/14 01:14:35;;;;;;;3.43;2.30;;;14.00;32.40;;;;;;5035909;28;20447;-43
2022/02/14 01:17:01;;;;;;;5.33;3.10;;;14.10;33.00;;;;;;5033778;28;20444;-43
2022/02/14 01:19:26;;;;;;;2.97;2.10;;;13.80;32.40;;;;;;5040123;28;20199;-42
2022/02/14 01:21:52;;;;;;;3.10;2.70;;;13.40;31.30;;;;;;5038723;28;20204;-42
2022/02/14 01:24:18;;;;;;;3.10;2.67;;;13.10;32.60;;;;;;5046261;28;20233;-42
2022/02/14 01:26:44;;;;;;;3.00;2.10;;;13.30;32.70;;;;;;5048364;28;20873;-43
2022/02/14 01:29:10;;;;;;;4.43;2.57;;;13.40;33.30;;;;;;5047479;28;20471;-43
2022/02/14 01:31:35;;;;;;;3.27;2.40;;;13.40;33.20;;;;;;5040577;28;20573;-42
2022/02/14 01:34:01;;;;;;;3.70;2.43;;;13.00;31.20;;;;;;5038992;28;20496;-43
2022/02/14 01:36:27;;;;;;;3.50;2.70;;;13.20;33.20;;;;;;5043247;28;20192;-43
2022/02/14 01:38:53;;;;;;;2.70;2.47;;;13.30;32.70;;;;;;5034218;28;20311;-42
2022/02/14 01:41:20;;;;;;;4.77;2.33;;;13.30;32.20;;;;;;5040271;28;20262;-42
2022/02/14 01:43:46;;;;;;;3.03;2.73;;;13.20;32.20;;;;;;5038157;28;20490;-42
2022/02/14 01:46:12;;;;;;;2.60;2.40;;;13.10;32.20;;;;;;5042779;28;21211;-43
2022/02/14 01:48:37;;;;;;;3.03;2.30;;;12.80;32.50;;;;;;5032174;28;20628;-43
2022/02/14 01:51:03;;;;;;;3.10;2.37;;;12.70;32.80;;;;;;5037320;28;20192;-43
2022/02/14 01:53:29;;;;;;;2.83;2.10;;;12.80;33.40;;;;;;5035676;28;20189;-43
2022/02/14 01:55:55;;;;;;;5.10;2.63;;;12.80;31.00;;;;;;5036446;28;20200;-43
2022/02/14 01:58:22;;;;;;;3.37;2.30;;;12.50;30.80;;;;;;5038507;28;20436;-43
2022/02/14 02:00:48;;;;;;;2.13;1.93;;;12.40;31.20;;;;;;5036361;28;22186;-42
2022/02/14 02:03:16;;;;;;;4.40;2.57;;;12.40;30.90;;;;;;5038670;28;22031;-43
2022/02/14 02:05:45;;;;;;;6.30;2.90;;;12.30;31.30;;;;;;5038868;28;20490;-43
2022/02/14 02:08:11;;;;;;;3.10;2.60;;;12.50;32.30;;;;;;5039578;28;20451;-44
2022/02/14 02:10:37;;;;;;;2.77;2.50;;;12.60;31.70;;;;;;5035329;28;20439;-43
2022/02/14 02:13:03;;;;;;;3.97;2.77;;;12.40;32.70;;;;;;5037243;28;20448;-43
2022/02/14 02:15:29;;;;;;;2.43;2.23;;;12.50;33.10;;;;;;5034922;28;20444;-43
2022/02/14 02:17:54;;;;;;;3.07;2.03;;;12.70;31.70;;;;;;5034920;28;20243;-43
2022/02/14 02:20:20;;;;;;;5.37;2.70;;;12.80;31.70;;;;;;5040910;28;20243;-43
2022/02/14 02:22:48;;;;;;;4.87;2.70;;;12.70;31.50;;;;;;5036017;28;20663;-43
2022/02/14 02:25:15;;;;;;;5.83;2.90;;;12.70;31.80;;;;;;5040808;28;20575;-43
2022/02/14 02:27:42;;;;;;;3.03;2.73;;;12.70;31.70;;;;;;5041241;28;20454;-42
2022/02/14 02:30:10;;;;;;;2.83;2.40;;;12.50;32.10;;;;;;5041493;28;21498;-43
2022/02/14 02:32:36;;;;;;;3.40;2.33;;;12.40;32.10;;;;;;5040509;28;20441;-43
2022/02/14 02:35:04;;;;;;;3.33;3.13;;;12.50;32.10;;;;;;5038393;28;20953;-43
2022/02/14 02:37:30;;;;;;;8.37;2.57;;;12.60;32.00;;;;;;5041358;28;20441;-43
2022/02/14 02:39:56;;;;;;;3.47;2.20;;;12.60;31.70;;;;;;5039207;28;20446;-43
2022/02/14 02:42:23;;;;;;;3.20;2.20;;;12.70;31.50;;;;;;5040519;28;23232;-43
2022/02/14 02:44:50;;;;;;;2.43;2.20;;;12.30;30.90;;;;;;5039643;28;20557;-43
2022/02/14 02:47:18;;;;;;;2.30;1.87;;;12.40;31.40;;;;;;5042503;28;22324;-43
2022/02/14 02:49:44;;;;;;;3.07;2.50;;;12.50;31.10;;;;;;5042119;28;20447;-42
2022/02/14 02:52:12;;;;;;;2.43;1.93;;;12.60;30.90;;;;;;5043447;28;20439;-43
2022/02/14 02:54:38;;;;;;;2.77;2.33;;;12.70;31.10;;;;;;5048931;28;20439;-43
2022/02/14 02:57:04;;;;;;;2.23;1.97;;;12.70;30.30;;;;;;5044954;28;20465;-43
2022/02/14 02:59:34;;;;;;;2.73;1.80;;;12.80;30.00;;;;;;5040028;28;20446;-43
2022/02/14 03:02:04;;;;;;;1.83;1.70;;;12.70;30.10;;;;;;5047380;28;20917;-44
2022/02/14 03:04:30;;;;;;;2.90;1.90;;;12.70;30.50;;;;;;5048786;28;20581;-43
2022/02/14 03:06:56;;;;;;;2.80;2.30;;;12.60;30.60;;;;;;5049283;28;20538;-43
2022/02/14 03:09:22;;;;;;;2.37;2.07;;;12.60;31.00;;;;;;5037653;28;20432;-43
2022/02/14 03:11:48;;;;;;;3.43;2.90;;;12.70;31.20;;;;;;5049069;28;20680;-42
2022/02/14 03:14:14;;;;;;;2.97;2.40;;;12.40;31.50;;;;;;5039388;28;20200;-43
2022/02/14 03:16:40;;;;;;;3.10;2.40;;;12.30;32.50;;;;;;5048539;28;20259;-42
2022/02/14 03:19:07;;;;;;;4.40;2.67;;;12.30;32.10;;;;;;5042613;28;20470;-42
2022/02/14 03:21:33;;;;;;;4.17;2.03;;;12.30;31.90;;;;;;5051156;28;20439;-43
2022/02/14 03:24:00;;;;;;;2.60;2.20;;;12.30;32.00;;;;;;5046603;28;20435;-43
2022/02/14 03:26:25;;;;;;;2.83;2.13;;;12.30;31.90;;;;;;5042581;28;20560;-44
2022/02/14 03:28:53;;;;;;;3.40;2.27;;;12.20;31.30;;;;;;5040846;28;20914;-44
2022/02/14 03:31:19;;;;;;;2.13;1.93;;;12.10;30.70;;;;;;5043466;28;20256;-43
2022/02/14 03:33:46;;;;;;;3.20;2.33;;;12.00;30.90;;;;;;5047951;28;20856;-43
2022/02/14 03:36:13;;;;;;;5.40;1.90;;;12.00;32.10;;;;;;5049093;28;20247;-43
2022/02/14 03:38:40;;;;;;;2.60;1.90;;;12.10;32.70;;;;;;5050088;28;20431;-42
2022/02/14 03:41:05;;;;;;;2.80;2.40;;;12.10;32.20;;;;;;5048926;28;20622;-43
2022/02/14 03:43:31;;;;;;;2.27;2.07;;;12.20;32.50;;;;;;5043389;28;20541;-43
2022/02/14 03:45:57;;;;;;;3.10;2.40;;;12.20;31.30;;;;;;5045882;28;20757;-43
2022/02/14 03:48:25;;;;;;;3.20;2.80;;;11.80;31.30;;;;;;5047274;28;20656;-43
2022/02/14 03:50:51;;;;;;;6.07;3.40;;;12.00;33.70;;;;;;5046106;28;20458;-43
2022/02/14 03:53:17;;;;;;;4.90;3.80;;;12.20;33.60;;;;;;5047467;28;20500;-42
2022/02/14 03:55:43;;;;;;;3.03;2.73;;;12.20;33.70;;;;;;5041650;28;20435;-44
2022/02/14 03:58:09;;;;;;;4.50;2.87;;;12.40;33.80;;;;;;5037542;28;20347;-43
2022/02/14 04:00:35;;;;;;;3.03;2.73;;;12.40;33.40;;;;;;5044336;28;20196;-43
2022/02/14 04:03:01;;;;;;;2.30;2.10;;;12.40;33.40;;;;;;5030528;28;20530;-43
2022/02/14 04:05:26;;;;;;;3.00;2.20;;;12.40;32.10;;;;;;5041417;28;20487;-43
2022/02/14 04:07:57;;;;;;;2.60;2.17;;;12.30;31.60;;;;;;5034399;28;20201;-43
2022/02/14 04:10:23;;;;;;;1.97;1.83;;;12.20;30.70;;;;;;5043577;28;20193;-43
2022/02/14 04:12:49;;;;;;;3.53;2.50;;;12.10;30.30;;;;;;5046171;28;20479;-42
2022/02/14 04:15:15;;;;;;;14.47;7.63;;;12.00;32.30;;;;;;5048016;28;20466;-43
2022/02/14 04:17:41;;;;;;;5.20;3.23;;;12.00;33.80;;;;;;5046918;28;20679;-42
2022/02/14 04:20:08;;;;;;;3.03;2.37;;;11.90;33.60;;;;;;5043672;28;20247;-43
2022/02/14 04:22:34;;;;;;;4.70;2.70;;;12.00;34.10;;;;;;5037489;28;20450;-43
2022/02/14 04:25:00;;;;;;;5.07;2.73;;;11.80;33.40;;;;;;5040475;28;20517;-43
2022/02/14 04:27:26;;;;;;;3.50;2.47;;;11.60;34.30;;;;;;5032459;28;20502;-43
2022/02/14 04:29:52;;;;;;;2.93;2.60;;;11.60;34.20;;;;;;5046486;28;20471;-43
2022/02/14 04:32:17;;;;;;;3.47;3.00;;;11.70;34.30;;;;;;5045911;28;20596;-43
2022/02/14 04:34:43;;;;;;;4.37;3.77;;;11.70;35.50;;;;;;5047284;28;20652;-43
2022/02/14 04:37:08;;;;;;;5.20;4.70;;;11.80;36.00;;;;;;5040896;28;20192;-43
2022/02/14 04:39:34;;;;;;;8.40;4.40;;;11.80;35.90;;;;;;5040028;28;20236;-42
2022/02/14 04:42:00;;;;;;;4.83;3.10;;;11.70;35.50;;;;;;5039854;28;20279;-43
2022/02/14 04:44:25;;;;;;;3.50;3.20;;;11.50;35.50;;;;;;5040056;28;20273;-43
2022/02/14 04:46:51;;;;;;;3.40;2.83;;;11.30;36.70;;;;;;5041433;28;20205;-43
2022/02/14 04:49:16;;;;;;;8.00;3.20;;;11.00;37.60;;;;;;5040911;28;20193;-42
2022/02/14 04:51:42;;;;;;;3.60;2.90;;;10.90;38.40;;;;;;5039040;28;20198;-42
2022/02/14 04:54:08;;;;;;;4.60;3.30;;;11.00;38.70;;;;;;5044380;28;20188;-42
2022/02/14 04:56:34;;;;;;;2.83;2.50;;;11.10;38.70;;;;;;5039051;28;20460;-43
2022/02/14 04:59:00;;;;;;;3.43;2.67;;;11.10;38.70;;;;;;5039256;28;21021;-42
2022/02/14 05:01:26;;;;;;;6.03;3.23;;;10.80;37.60;;;;;;5043548;28;20423;-42
2022/02/14 05:03:52;;;;;;;3.60;2.70;;;10.30;39.30;;;;;;5038056;28;20649;-42
2022/02/14 05:06:18;;;;;;;4.00;2.50;;;10.40;39.50;;;;;;5038009;28;20362;-42
2022/02/14 05:08:44;;;;;;;6.33;3.13;;;10.40;39.30;;;;;;5037971;28;21227;-43
2022/02/14 05:11:10;;;;;;;4.20;3.20;;;10.50;39.60;;;;;;5037384;28;20443;-43
2022/02/14 05:13:40;;;;;;;5.43;3.10;;;10.60;39.70;;;;;;5037608;28;20444;-42
2022/02/14 05:16:06;;;;;;;3.83;2.43;;;10.60;39.00;;;;;;5035383;28;20435;-42
2022/02/14 05:18:32;;;;;;;3.00;2.70;;;10.60;38.50;;;;;;5039184;28;20965;-42
2022/02/14 05:20:57;;;;;;;5.03;2.73;;;10.40;38.50;;;;;;5038588;28;20470;-42
2022/02/14 05:23:23;;;;;;;2.67;2.47;;;10.30;38.60;;;;;;5038832;28;20224;-43
2022/02/14 05:25:49;;;;;;;3.83;2.73;;;10.30;38.30;;;;;;5035921;28;20232;-43
2022/02/14 05:28:14;;;;;;;4.30;2.53;;;10.10;38.00;;;;;;5033349;28;20652;-42
2022/02/14 05:30:40;;;;;;;4.13;2.83;;;10.30;38.30;;;;;;5038315;28;20343;-42
2022/02/14 05:33:06;;;;;;;3.03;2.73;;;10.40;38.20;;;;;;5032539;28;20670;-43
2022/02/14 05:35:33;;;;;;;5.33;2.97;;;10.50;37.50;;;;;;5038508;28;20571;-42
2022/02/14 05:37:59;;;;;;;4.63;3.33;;;10.40;37.70;;;;;;5038624;28;20435;-43
2022/02/14 05:40:25;;;;;;;3.70;2.80;;;10.40;38.00;;;;;;5037946;28;20445;-43
2022/02/14 05:42:51;;;;;;;5.40;3.30;;;10.20;37.70;;;;;;5037282;28;21004;-43
2022/02/14 05:45:16;;;;;;;3.70;2.90;;;10.20;38.70;;;;;;5035484;28;20475;-42
2022/02/14 05:47:42;;;;;;;3.83;3.03;;;10.30;38.50;;;;;;5038541;28;20566;-42
2022/02/14 05:50:09;;;;;;;3.67;3.37;;;10.30;38.80;;;;;;5036059;28;20242;-43
2022/02/14 05:52:36;;;;;;;3.33;2.77;;;10.40;38.70;;;;;;5038879;28;20246;-42
2022/02/14 05:55:02;;;;;;;3.07;2.73;;;10.40;38.60;;;;;;5032823;28;21023;-43
2022/02/14 05:57:28;;;;;;;4.20;2.70;;;10.20;38.80;;;;;;5036942;28;22108;-43
2022/02/14 05:59:53;;;;;;;7.40;3.20;;;10.20;39.00;;;;;;5036767;28;20451;-43
2022/02/14 06:02:19;;;;;;;3.60;2.27;;;10.20;38.70;;;;;;5035827;28;20703;-43
2022/02/14 06:04:45;;;;;;;5.20;3.53;;;10.10;38.70;;;;;;5036789;28;20221;-42
2022/02/14 06:07:10;;;;;;;8.43;3.90;;;10.00;39.00;;;;;;5043260;28;20215;-43
2022/02/14 06:09:36;;;;;;;4.93;3.50;;;10.10;39.20;;;;;;5034865;28;22393;-43
2022/02/14 06:12:02;;;;;;;4.23;3.30;;;10.10;38.90;;;;;;5036686;28;20204;-43
2022/02/14 06:14:30;;;;;;;6.57;4.20;;;10.20;38.50;;;;;;5035749;28;20219;-43
2022/02/14 06:16:56;;;;;;;6.60;4.00;;;10.10;39.60;;;;;;5040246;28;20457;-43
2022/02/14 06:19:21;;;;;;;7.03;3.70;;;10.20;40.00;;;;;;5035460;28;20526;-43
2022/02/14 06:21:47;;;;;;;5.17;4.23;;;10.20;40.40;;;;;;5029945;28;20488;-43
2022/02/14 06:24:15;;;;;;;6.80;3.23;;;10.20;40.80;;;;;;5033458;28;20591;-43
2022/02/14 06:26:41;;;;;;;3.47;3.10;;;10.00;41.10;;;;;;5043086;28;20898;-43
2022/02/14 06:29:07;;;;;;;5.13;3.20;;;10.00;40.90;;;;;;5035980;28;20529;-42
2022/02/14 06:31:33;;;;;;;4.20;3.10;;;10.00;40.50;;;;;;5038308;28;20240;-43
2022/02/14 06:33:59;;;;;;;3.93;2.50;;;10.00;40.80;;;;;;5032895;28;22460;-43
2022/02/14 06:36:27;;;;;;;5.10;3.13;;;10.10;42.00;;;;;;5036093;28;20440;-42
2022/02/14 06:38:58;;;;;;;7.50;3.87;;;10.20;42.10;;;;;;5034524;28;20473;-42
2022/02/14 06:41:26;;;;;;;7.80;3.63;;;10.40;42.50;;;;;;5036922;28;21063;-42
2022/02/14 06:43:53;;;;;;;3.73;3.00;;;10.60;41.10;;;;;;5035919;28;20442;-42
2022/02/14 06:46:19;;;;;;;20.03;3.10;;;10.60;40.30;;;;;;5037375;28;21020;-42
2022/02/14 06:48:44;;;;;;;4.13;3.20;;;10.60;39.90;;;;;;5035226;28;20431;-42
2022/02/14 06:51:11;;;;;;;10.73;4.10;;;10.80;39.80;;;;;;5032858;28;20192;-42
2022/02/14 06:53:37;;;;;;;7.90;3.87;;;11.00;38.80;;;;;;5037185;28;20211;-42
2022/02/14 06:56:05;;;;;;;5.20;3.10;;;11.20;39.00;;;;;;5035067;28;20522;-43
2022/02/14 06:58:33;;;;;;;4.13;3.33;;;11.20;38.90;;;;;;5045147;28;20451;-42
2022/02/14 07:00:59;;;;;;;4.57;2.90;;;11.20;37.70;;;;;;5043886;28;20996;-42
2022/02/14 07:03:24;;;;;;;3.90;2.90;;;11.20;38.10;;;;;;5044999;28;20483;-42
2022/02/14 07:05:50;;;;;;;6.80;3.07;;;11.00;36.80;;;;;;5035368;28;20311;-42
2022/02/14 07:08:15;;;;;;;6.30;2.77;;;11.00;37.60;;;;;;5044695;28;20201;-42
2022/02/14 07:10:41;;;;;;;5.37;2.80;;;11.10;37.20;;;;;;5040625;28;20203;-42
2022/02/14 07:13:06;;;;;;;3.30;2.70;;;11.20;37.10;;;;;;5036308;28;20668;-42
2022/02/14 07:15:32;;;;;;;4.70;3.27;;;11.20;37.10;;;;;;5047162;28;20185;-42
2022/02/14 07:18:01;;;;;;;5.37;3.40;;;11.30;37.10;;;;;;5036097;28;20196;-42
2022/02/14 07:20:27;;;;;;;2.93;2.43;;;11.40;37.30;;;;;;5046107;28;20655;-42
2022/02/14 07:22:52;;;;;;;5.70;2.47;;;11.40;37.30;;;;;;5049465;28;20441;-43
2022/02/14 07:25:18;;;;;;;3.50;2.20;;;11.30;36.60;;;;;;5042956;28;20487;-42
2022/02/14 07:27:44;;;;;;;3.80;2.80;;;11.30;36.80;;;;;;5048470;28;20994;-42
2022/02/14 07:30:12;;;;;;;3.43;2.90;;;11.50;37.00;;;;;;5039463;28;20233;-42
2022/02/14 07:32:38;;;;;;;5.83;3.07;;;11.70;36.60;;;;;;5049434;28;20431;-42
2022/02/14 07:35:05;;;;;;;4.90;2.93;;;11.80;36.40;;;;;;5048987;28;20809;-42
2022/02/14 07:37:31;;;;;;;7.50;3.67;;;11.80;35.90;;;;;;5048903;28;20855;-42
2022/02/14 07:39:57;;;;;;;4.50;3.07;;;11.80;36.30;;;;;;5045719;28;20447;-42
2022/02/14 07:42:22;;;;;;;3.53;3.20;;;11.90;36.30;;;;;;5048841;28;20196;-42
2022/02/14 07:44:48;;;;;;;7.93;3.00;;;12.00;36.30;;;;;;5051831;28;20216;-42
2022/02/14 07:47:14;;;;;;;5.33;3.77;;;11.80;36.60;;;;;;5050100;28;20987;-42
2022/02/14 07:49:40;;;;;;;5.43;4.03;;;11.90;37.10;;;;;;5053062;28;20230;-42
2022/02/14 07:52:05;;;;;;;5.33;3.70;;;12.10;37.00;;;;;;5037314;28;20491;-42
2022/02/14 07:54:31;;;;;;;6.43;3.50;;;12.40;36.40;;;;;;5048025;28;20197;-42
2022/02/14 07:56:57;;;;;;;4.77;3.20;;;12.60;35.80;;;;;;5033646;28;20209;-42
2022/02/14 07:59:23;;;;;;;4.93;3.00;;;12.80;35.50;;;;;;5033230;28;20566;-42
2022/02/14 08:01:48;;;;;;;5.27;3.20;;;13.00;34.90;;;;;;5042970;28;20238;-42
2022/02/14 08:04:14;;;;;;;4.37;3.83;;;13.20;34.40;;;;;;5051115;28;20431;-42
2022/02/14 08:06:40;;;;;;;4.37;3.47;;;13.40;33.70;;;;;;5051805;28;20637;-43
2022/02/14 08:09:07;;;;;;;7.50;4.40;;;13.50;33.60;;;;;;5042416;28;20244;-43
2022/02/14 08:11:33;;;;;;;5.83;3.87;;;13.70;33.40;;;;;;5033643;28;20217;-42
2022/02/14 08:13:59;;;;;;;7.73;5.00;;;13.80;33.80;;;;;;5030626;28;20432;-42
2022/02/14 08:16:26;;;;;;;6.30;3.90;;;13.90;33.80;;;;;;5047289;28;20442;-43
2022/02/14 08:18:52;;;;;;;8.87;5.10;;;14.00;33.50;;;;;;5040352;28;20535;-42
2022/02/14 08:21:18;;;;;;;6.47;5.43;;;14.10;33.80;;;;;;5036753;28;20436;-42
2022/02/14 08:23:44;;;;;;;6.13;4.47;;;14.20;34.30;;;;;;5051502;28;20434;-43
2022/02/14 08:26:10;;;;;;;6.80;4.33;;;14.30;34.40;;;;;;5049079;28;20289;-43
2022/02/14 08:28:38;;;;;;;7.90;4.90;;;14.20;34.10;;;;;;5040504;28;20196;-42
2022/02/14 08:31:04;;;;;;;6.33;4.50;;;14.20;34.50;;;;;;5049996;28;20482;-43
2022/02/14 08:33:30;;;;;;;6.80;4.33;;;14.20;34.70;;;;;;5050992;28;20791;-42
2022/02/14 08:35:56;;;;;;;7.20;4.20;;;14.20;34.80;;;;;;5050011;28;20231;-43
2022/02/14 08:38:22;;;;;;;7.30;4.27;;;14.20;34.80;;;;;;5047485;28;20857;-42
2022/02/14 08:40:48;;;;;;;7.30;4.80;;;14.10;34.60;;;;;;5033454;28;20192;-43
2022/02/14 08:43:13;;;;;;;7.73;4.53;;;14.10;34.90;;;;;;5032129;28;20316;-43
2022/02/14 08:45:39;;;;;;;12.43;3.70;;;13.70;34.90;;;;;;5037658;28;20742;-42
2022/02/14 08:48:04;;;;;;;5.80;4.60;;;13.50;35.70;;;;;;5044756;28;20283;-43
2022/02/14 08:50:31;;;;;;;7.80;3.80;;;13.60;36.20;;;;;;5049611;28;20250;-43
2022/02/14 08:53:00;;;;;;;6.40;3.80;;;13.80;35.60;;;;;;5049478;28;20203;-42
2022/02/14 08:55:27;;;;;;;6.63;3.93;;;13.80;35.30;;;;;;5049858;28;20431;-42
2022/02/14 08:57:52;;;;;;;5.30;4.17;;;13.90;35.30;;;;;;5047364;28;20439;-43
2022/02/14 09:00:18;;;;;;;4.30;3.40;;;13.90;35.30;;;;;;5047921;28;20898;-43
2022/02/14 09:02:44;;;;;;;15.93;4.07;;;14.00;35.30;;;;;;5048917;28;20201;-43
2022/02/14 09:05:09;;;;;;;3.97;3.47;;;14.10;35.40;;;;;;5044449;28;20566;-43
2022/02/14 09:07:35;;;;;;;8.97;3.30;;;14.20;34.50;;;;;;5042101;28;20196;-44
2022/02/14 09:10:01;;;;;;;6.40;3.20;;;14.40;34.50;;;;;;5041619;28;20267;-43
2022/02/14 09:12:27;;;;;;;4.47;3.03;;;14.50;34.40;;;;;;5042650;28;20438;-43
2022/02/14 09:14:52;;;;;;;4.90;2.93;;;14.60;34.20;;;;;;5050067;28;20201;-43
2022/02/14 09:17:18;;;;;;;4.33;2.60;;;14.70;34.00;;;;;;5046820;28;20262;-43
2022/02/14 09:19:45;;;;;;;4.10;2.50;;;15.00;33.00;;;;;;5049566;28;20196;-43
2022/02/14 09:22:11;;;;;;;5.97;3.17;;;14.90;31.00;;;;;;5049255;28;20432;-43
2022/02/14 09:24:37;;;;;;;5.40;2.60;;;15.00;31.30;;;;;;5047017;28;20478;-44
2022/02/14 09:27:03;;;;;;;3.27;2.97;;;15.10;31.00;;;;;;5046889;28;20927;-44
2022/02/14 09:29:30;;;;;;;3.70;2.40;;;15.40;31.50;;;;;;5045509;28;20271;-43
2022/02/14 09:31:58;;;;;;;5.77;3.27;;;15.50;30.20;;;;;;5050097;28;20840;-44
2022/02/14 09:34:24;;;;;;;8.63;2.87;;;15.70;30.80;;;;;;5049749;28;20439;-43
2022/02/14 09:36:53;;;;;;;4.90;2.63;;;16.00;30.10;;;;;;5043791;28;20485;-44
2022/02/14 09:39:20;;;;;;;5.37;2.50;;;16.20;30.00;;;;;;5040012;28;20439;-43
2022/02/14 09:41:45;;;;;;;2.67;2.47;;;16.30;29.50;;;;;;5036322;28;20435;-44
2022/02/14 09:44:11;;;;;;;4.13;3.23;;;16.50;29.50;;;;;;5044855;28;20426;-42
2022/02/14 09:46:39;;;;;;;3.67;2.93;;;16.50;29.20;;;;;;5048802;28;20199;-42
2022/02/14 09:49:06;;;;;;;4.30;2.40;;;16.50;29.70;;;;;;5041846;28;20205;-42
2022/02/14 09:51:34;;;;;;;4.20;2.77;;;16.50;29.90;;;;;;5045175;28;20477;-41
2022/02/14 09:53:59;;;;;;;2.90;2.27;;;16.50;29.70;;;;;;5044806;28;20443;-42
2022/02/14 09:56:29;;;;;;;7.07;2.40;;;16.50;29.90;;;;;;5038332;28;20833;-42
2022/02/14 09:58:56;;;;;;;3.97;2.87;;;16.40;30.00;;;;;;5039729;28;20227;-41
2022/02/14 10:01:22;;;;;;;5.80;2.97;;;16.40;30.00;;;;;;5048588;28;20427;-42
2022/02/14 10:03:58;;;;;;;3.70;2.50;;;16.50;30.20;;;;;;5043282;28;20435;-42
2022/02/14 10:06:33;;;;;;;16.13;2.90;;;16.50;30.30;;;;;;5047218;28;20483;-42
2022/02/14 10:09:13;;;;;;;6.47;3.20;;;16.50;31.10;;;;;;5047076;28;20426;-42
2022/02/14 10:11:56;;;;;;;3.30;3.00;;;16.60;30.80;;;;;;5035923;28;20439;-42
2022/02/14 10:14:22;;;;;;;6.50;2.90;;;16.70;30.80;;;;;;5041217;28;20435;-42
2022/02/14 10:17:07;;;;;;;4.33;3.10;;;16.90;30.70;;;;;;5044535;28;20435;-42
2022/02/14 10:19:40;;;;;;;2.40;2.20;;;16.90;30.20;;;;;;5041911;28;20227;-42
2022/02/14 10:22:09;;;;;;;5.50;2.73;;;16.50;30.90;;;;;;5044598;28;20451;-42
2022/02/14 10:24:40;;;;;;;6.13;2.90;;;16.70;31.40;;;;;;5038852;28;20481;-42
2022/02/14 10:27:07;;;;;;;5.17;2.93;;;16.80;31.20;;;;;;5044244;28;20442;-42
2022/02/14 10:29:32;;;;;;;3.80;2.47;;;16.90;31.20;;;;;;5040343;28;20447;-42
2022/02/14 10:32:01;;;;;;;5.83;2.43;;;16.90;31.30;;;;;;5043707;28;20454;-42
2022/02/14 10:34:37;;;;;;;5.33;2.93;;;16.80;31.40;;;;;;5039517;28;20188;-42
2022/02/14 10:37:05;;;;;;;3.80;2.40;;;16.70;31.80;;;;;;5032219;28;20568;-42
2022/02/14 10:39:32;;;;;;;3.90;2.43;;;16.60;31.80;;;;;;5045949;28;21005;-42
2022/02/14 10:42:20;;;;;;;11.20;2.87;;;16.80;32.40;;;;;;5040074;28;20446;-42
2022/02/14 10:47:36;;;;;;;3.00;2.37;;;16.80;32.10;;;;;;5045171;28;20557;-42
2022/02/14 10:50:12;;;;;;;7.67;2.77;;;17.00;32.20;;;;;;5052089;28;20438;-42
2022/02/14 10:52:52;;;;;;;5.17;2.60;;;17.00;32.10;;;;;;5049787;28;20430;-42
2022/02/14 10:55:21;;;;;;;4.50;2.50;;;17.00;32.20;;;;;;5051327;28;20437;-42
2022/02/14 10:57:49;;;;;;;4.70;2.40;;;17.20;33.20;;;;;;5040747;28;20497;-42
2022/02/14 11:00:17;;;;;;;3.40;2.60;;;17.20;32.60;;;;;;5047352;28;20435;-42
2022/02/14 11:02:50;;;;;;;3.57;2.57;;;17.40;32.70;;;;;;5048284;28;20466;-42
2022/02/14 11:05:17;;;;;;;4.50;2.57;;;17.40;32.90;;;;;;5042446;28;20483;-42
2022/02/14 11:07:43;;;;;;;4.47;2.40;;;17.50;33.30;;;;;;5046092;28;20489;-42
2022/02/14 11:10:12;;;;;;;6.73;2.27;;;17.60;33.50;;;;;;5049548;28;20510;-42
2022/02/14 11:12:48;;;;;;;5.47;2.70;;;17.60;33.90;;;;;;5055730;28;20435;-43
2022/02/14 11:15:13;;;;;;;5.60;2.70;;;17.60;34.30;;;;;;5042069;28;20513;-42
2022/02/14 11:17:49;;;;;;;7.30;3.13;;;17.60;34.40;;;;;;5037040;28;20432;-42
2022/02/14 11:20:16;;;;;;;3.90;2.33;;;17.70;35.00;;;;;;5041200;28;20430;-42
2022/02/14 11:22:49;;;;;;;2.10;1.90;;;17.40;35.60;;;;;;5044870;28;20454;-42
2022/02/14 11:25:40;;;;;;;4.40;2.50;;;17.20;37.00;;;;;;5049202;28;20494;-42
2022/02/14 11:28:18;;;;;;;3.53;2.23;;;17.20;37.70;;;;;;5039288;28;20450;-42
2022/02/14 11:31:05;;;;;;;4.60;2.53;;;17.20;38.00;;;;;;5042172;28;20481;-42
2022/02/14 11:33:31;;;;;;;5.47;2.60;;;17.40;37.70;;;;;;5047534;28;20508;-42
2022/02/14 11:36:00;;;;;;;4.90;2.53;;;17.30;37.70;;;;;;5048255;28;20440;-43
2022/02/14 11:38:46;;;;;;;2.70;1.93;;;17.20;38.50;;;;;;5041474;28;20212;-43
2022/02/14 11:41:34;;;;;;;2.40;1.87;;;17.30;37.90;;;;;;5042300;28;20453;-44
2022/02/14 11:44:11;;;;;;;3.67;2.13;;;17.40;38.20;;;;;;5048051;28;20482;-43
2022/02/14 11:47:02;;;;;;;3.23;1.80;;;17.20;39.10;;;;;;5034587;28;20548;-44
2022/02/14 11:49:36;;;;;;;5.50;2.10;;;16.80;39.60;;;;;;5043271;28;20454;-43
2022/02/14 11:52:04;;;;;;;2.93;2.03;;;16.80;40.50;;;;;;5046093;28;20536;-43
2022/02/14 11:54:49;;;;;;;3.47;1.53;;;16.80;40.30;;;;;;5041237;28;20950;-43
2022/02/14 11:57:31;;;;;;;8.30;2.40;;;16.50;40.60;;;;;;5039179;28;20443;-42
2022/02/14 12:00:12;;;;;;;5.30;1.50;;;16.40;41.40;;;;;;5048395;28;20468;-42
2022/02/14 12:02:38;;;;;;;3.63;2.00;;;16.50;41.40;;;;;;5037427;28;20439;-42
2022/02/14 12:05:05;;;;;;;4.00;1.73;;;16.20;41.70;;;;;;5047621;28;20487;-42
2022/02/14 12:07:41;;;;;;;2.30;1.70;;;15.90;42.00;;;;;;5041748;28;20494;-43
2022/02/14 12:10:24;;;;;;;4.50;1.40;;;15.80;42.60;;;;;;5047770;28;20430;-43
2022/02/14 12:12:54;;;;;;;3.80;1.70;;;15.90;42.80;;;;;;5042136;28;21231;-43
2022/02/14 12:20:37;;;;;;;2.40;1.80;;;15.80;42.90;;;;;;5048201;28;20486;-42
2022/02/14 12:23:03;;;;;;;5.30;1.37;;;15.70;43.10;;;;;;5040869;28;20926;-42
2022/02/14 12:25:29;;;;;;;1.30;1.20;;;15.80;43.20;;;;;;5047588;28;20229;-42
2022/02/14 12:27:59;;;;;;;4.37;1.40;;;15.70;43.00;;;;;;5048244;28;20431;-42
2022/02/14 12:30:28;;;;;;;3.87;1.80;;;15.70;43.30;;;;;;5050276;28;21020;-43
2022/02/14 12:32:59;;;;;;;1.93;1.83;;;15.60;43.30;;;;;;5043913;28;20454;-43
2022/02/14 12:35:36;;;;;;;2.17;1.70;;;15.60;43.40;;;;;;5046839;28;20492;-42
2022/02/14 12:38:03;;;;;;;2.60;1.73;;;15.70;43.50;;;;;;5039242;28;20522;-42
2022/02/14 12:40:56;;;;;;;4.23;1.90;;;15.60;43.20;;;;;;5041665;28;20427;-43
2022/02/14 12:43:29;;;;;;;3.30;1.80;;;15.60;43.20;;;;;;5042716;28;20973;-44
2022/02/14 12:45:57;;;;;;;3.47;1.50;;;15.80;43.60;;;;;;5034811;28;20483;-43
2022/02/14 12:48:33;;;;;;;3.60;1.77;;;15.90;43.50;;;;;;5031245;28;20931;-43
2022/02/14 12:51:01;;;;;;;3.43;1.40;;;16.00;43.40;;;;;;5035642;28;20773;-43
2022/02/14 12:53:27;;;;;;;5.20;2.03;;;15.80;43.10;;;;;;5042016;28;20834;-43
2022/02/14 12:55:57;;;;;;;4.70;1.70;;;15.90;43.80;;;;;;5044750;28;20432;-43